sensor_id;sensor_type;location;lat;lon;timestamp;P1;durP1;ratioP1;P2;durP2;ratioP2
68888;SDS011;55930;47.412;8.790;2023-02-15T00:01:36;18.13;;;13.13;;
68888;SDS011;55930;47.412;8.790;2023-02-15T00:04:57;20.95;;;13.95;;
68888;SDS011;55930;47.412;8.790;2023-02-15T00:08:17;20.93;;;13.73;;
68888;SDS011;55930;47.412;8.790;2023-02-15T00:11:38;23.67;;;15.23;;
68888;SDS011;55930;47.412;8.790;2023-02-15T00:15:25;20.90;;;13.38;;
68888;SDS011;55930;47.412;8.790;2023-02-15T00:18:45;19.80;;;14.37;;
68888;SDS011;55930;47.412;8.790;2023-02-15T00:22:06;20.63;;;14.43;;
68888;SDS011;55930;47.412;8.790;2023-02-15T00:25:26;19.90;;;13.17;;
68888;SDS011;55930;47.412;8.790;2023-02-15T00:28:47;20.23;;;13.83;;
68888;SDS011;55930;47.412;8.790;2023-02-15T00:32:09;20.60;;;13.70;;
68888;SDS011;55930;47.412;8.790;2023-02-15T00:35:30;21.13;;;14.03;;
68888;SDS011;55930;47.412;8.790;2023-02-15T00:38:50;19.13;;;13.60;;
68888;SDS011;55930;47.412;8.790;2023-02-15T00:42:11;19.67;;;12.37;;
68888;SDS011;55930;47.412;8.790;2023-02-15T00:45:31;17.90;;;12.77;;
68888;SDS011;55930;47.412;8.790;2023-02-15T00:48:51;17.70;;;13.83;;
68888;SDS011;55930;47.412;8.790;2023-02-15T00:52:12;18.80;;;13.80;;
68888;SDS011;55930;47.412;8.790;2023-02-15T00:55:32;19.10;;;13.67;;
68888;SDS011;55930;47.412;8.790;2023-02-15T00:58:53;19.03;;;13.37;;
68888;SDS011;55930;47.412;8.790;2023-02-15T01:02:13;19.87;;;13.27;;
68888;SDS011;55930;47.412;8.790;2023-02-15T01:05:34;20.77;;;13.43;;
68888;SDS011;55930;47.412;8.790;2023-02-15T01:08:54;19.13;;;13.27;;
68888;SDS011;55930;47.412;8.790;2023-02-15T01:12:15;21.03;;;12.73;;
68888;SDS011;55930;47.412;8.790;2023-02-15T01:15:35;19.00;;;13.50;;
68888;SDS011;55930;47.412;8.790;2023-02-15T01:18:56;20.73;;;14.50;;
68888;SDS011;55930;47.412;8.790;2023-02-15T01:22:17;21.70;;;13.80;;
68888;SDS011;55930;47.412;8.790;2023-02-15T01:25:39;21.63;;;14.55;;
68888;SDS011;55930;47.412;8.790;2023-02-15T01:28:59;20.87;;;13.57;;
68888;SDS011;55930;47.412;8.790;2023-02-15T01:32:20;22.20;;;14.80;;
68888;SDS011;55930;47.412;8.790;2023-02-15T01:35:40;22.33;;;15.00;;
68888;SDS011;55930;47.412;8.790;2023-02-15T01:39:01;15.30;;;11.10;;
68888;SDS011;55930;47.412;8.790;2023-02-15T01:42:24;23.13;;;13.85;;
68888;SDS011;55930;47.412;8.790;2023-02-15T01:45:46;22.48;;;14.20;;
68888;SDS011;55930;47.412;8.790;2023-02-15T01:49:11;23.35;;;15.00;;
68888;SDS011;55930;47.412;8.790;2023-02-15T01:52:41;21.63;;;15.25;;
68888;SDS011;55930;47.412;8.790;2023-02-15T01:56:29;26.25;;;15.00;;
68888;SDS011;55930;47.412;8.790;2023-02-15T01:59:53;20.98;;;14.10;;
68888;SDS011;55930;47.412;8.790;2023-02-15T02:03:23;24.50;;;15.32;;
68888;SDS011;55930;47.412;8.790;2023-02-15T02:06:56;21.48;;;14.55;;
68888;SDS011;55930;47.412;8.790;2023-02-15T02:10:19;22.88;;;14.73;;
68888;SDS011;55930;47.412;8.790;2023-02-15T02:13:47;26.75;;;17.15;;
68888;SDS011;55930;47.412;8.790;2023-02-15T02:28:08;25.35;;;16.00;;
68888;SDS011;55930;47.412;8.790;2023-02-15T02:43:08;23.80;;;16.65;;
68888;SDS011;55930;47.412;8.790;2023-02-15T02:46:57;24.17;;;15.85;;
68888;SDS011;55930;47.412;8.790;2023-02-15T02:50:25;27.00;;;17.52;;
68888;SDS011;55930;47.412;8.790;2023-02-15T02:53:50;26.00;;;16.55;;
68888;SDS011;55930;47.412;8.790;2023-02-15T02:57:16;30.35;;;19.10;;
68888;SDS011;55930;47.412;8.790;2023-02-15T03:00:40;27.55;;;18.02;;
68888;SDS011;55930;47.412;8.790;2023-02-15T03:04:07;27.35;;;18.17;;
68888;SDS011;55930;47.412;8.790;2023-02-15T03:07:32;28.30;;;18.88;;
68888;SDS011;55930;47.412;8.790;2023-02-15T03:10:56;29.70;;;18.55;;
68888;SDS011;55930;47.412;8.790;2023-02-15T03:14:20;29.10;;;19.55;;
68888;SDS011;55930;47.412;8.790;2023-02-15T03:17:43;30.90;;;20.50;;
68888;SDS011;55930;47.412;8.790;2023-02-15T03:21:09;27.90;;;17.95;;
68888;SDS011;55930;47.412;8.790;2023-02-15T03:28:18;26.15;;;17.33;;
68888;SDS011;55930;47.412;8.790;2023-02-15T03:31:44;28.52;;;18.67;;
68888;SDS011;55930;47.412;8.790;2023-02-15T03:35:10;27.00;;;18.50;;
68888;SDS011;55930;47.412;8.790;2023-02-15T03:38:36;24.17;;;16.87;;
68888;SDS011;55930;47.412;8.790;2023-02-15T03:42:27;27.95;;;18.88;;
68888;SDS011;55930;47.412;8.790;2023-02-15T03:45:51;29.13;;;18.55;;
68888;SDS011;55930;47.412;8.790;2023-02-15T03:49:22;24.45;;;17.17;;
68888;SDS011;55930;47.412;8.790;2023-02-15T03:52:49;25.40;;;16.80;;
68888;SDS011;55930;47.412;8.790;2023-02-15T03:56:10;24.83;;;16.77;;
68888;SDS011;55930;47.412;8.790;2023-02-15T03:59:30;18.50;;;12.23;;
68888;SDS011;55930;47.412;8.790;2023-02-15T04:06:53;22.52;;;14.73;;
68888;SDS011;55930;47.412;8.790;2023-02-15T04:10:13;23.57;;;15.73;;
68888;SDS011;55930;47.412;8.790;2023-02-15T04:13:52;25.33;;;16.15;;
68888;SDS011;55930;47.412;8.790;2023-02-15T04:17:16;24.17;;;15.15;;
68888;SDS011;55930;47.412;8.790;2023-02-15T04:20:36;25.27;;;15.27;;
68888;SDS011;55930;47.412;8.790;2023-02-15T04:24:16;26.27;;;17.17;;
68888;SDS011;55930;47.412;8.790;2023-02-15T04:27:55;23.05;;;16.95;;
68888;SDS011;55930;47.412;8.790;2023-02-15T04:31:18;27.23;;;16.55;;
68888;SDS011;55930;47.412;8.790;2023-02-15T04:34:39;24.57;;;16.30;;
68888;SDS011;55930;47.412;8.790;2023-02-15T04:37:59;25.57;;;17.23;;
68888;SDS011;55930;47.412;8.790;2023-02-15T04:41:20;25.70;;;17.80;;
68888;SDS011;55930;47.412;8.790;2023-02-15T04:44:40;24.00;;;16.30;;
68888;SDS011;55930;47.412;8.790;2023-02-15T04:48:03;25.30;;;17.33;;
68888;SDS011;55930;47.412;8.790;2023-02-15T04:51:23;24.13;;;15.70;;
68888;SDS011;55930;47.412;8.790;2023-02-15T04:54:44;22.33;;;15.30;;
68888;SDS011;55930;47.412;8.790;2023-02-15T04:58:07;25.08;;;16.10;;
68888;SDS011;55930;47.412;8.790;2023-02-15T05:01:27;21.43;;;15.13;;
68888;SDS011;55930;47.412;8.790;2023-02-15T05:04:50;21.02;;;13.25;;
68888;SDS011;55930;47.412;8.790;2023-02-15T05:08:11;24.53;;;14.30;;
68888;SDS011;55930;47.412;8.790;2023-02-15T05:11:34;21.52;;;15.23;;
68888;SDS011;55930;47.412;8.790;2023-02-15T05:14:54;19.20;;;13.00;;
68888;SDS011;55930;47.412;8.790;2023-02-15T05:18:15;18.80;;;12.93;;
68888;SDS011;55930;47.412;8.790;2023-02-15T05:21:37;19.23;;;13.45;;
68888;SDS011;55930;47.412;8.790;2023-02-15T05:24:57;17.67;;;12.83;;
68888;SDS011;55930;47.412;8.790;2023-02-15T05:28:36;17.52;;;11.95;;
68888;SDS011;55930;47.412;8.790;2023-02-15T05:31:59;18.42;;;12.30;;
68888;SDS011;55930;47.412;8.790;2023-02-15T05:35:19;20.83;;;13.37;;
68888;SDS011;55930;47.412;8.790;2023-02-15T05:38:40;17.07;;;11.83;;
68888;SDS011;55930;47.412;8.790;2023-02-15T05:42:03;16.20;;;10.73;;
68888;SDS011;55930;47.412;8.790;2023-02-15T05:45:23;17.33;;;10.98;;
68888;SDS011;55930;47.412;8.790;2023-02-15T05:48:44;17.97;;;10.90;;
68888;SDS011;55930;47.412;8.790;2023-02-15T05:52:04;14.93;;;10.80;;
68888;SDS011;55930;47.412;8.790;2023-02-15T05:55:28;14.15;;;10.40;;
68888;SDS011;55930;47.412;8.790;2023-02-15T05:58:52;13.02;;;9.38;;
68888;SDS011;55930;47.412;8.790;2023-02-15T06:02:13;13.90;;;9.95;;
68888;SDS011;55930;47.412;8.790;2023-02-15T06:05:33;12.30;;;8.90;;
68888;SDS011;55930;47.412;8.790;2023-02-15T06:08:55;15.07;;;9.40;;
68888;SDS011;55930;47.412;8.790;2023-02-15T06:12:17;16.60;;;9.77;;
68888;SDS011;55930;47.412;8.790;2023-02-15T06:15:37;11.57;;;7.37;;
68888;SDS011;55930;47.412;8.790;2023-02-15T06:18:58;13.83;;;8.77;;
68888;SDS011;55930;47.412;8.790;2023-02-15T06:22:19;15.82;;;10.20;;
68888;SDS011;55930;47.412;8.790;2023-02-15T06:25:43;13.85;;;9.00;;
68888;SDS011;55930;47.412;8.790;2023-02-15T06:29:06;18.20;;;10.23;;
68888;SDS011;55930;47.412;8.790;2023-02-15T06:32:27;14.37;;;10.47;;
68888;SDS011;55930;47.412;8.790;2023-02-15T06:35:47;17.33;;;9.47;;
68888;SDS011;55930;47.412;8.790;2023-02-15T06:39:08;13.87;;;10.07;;
68888;SDS011;55930;47.412;8.790;2023-02-15T06:42:31;14.70;;;9.57;;
68888;SDS011;55930;47.412;8.790;2023-02-15T06:45:51;10.67;;;7.90;;
68888;SDS011;55930;47.412;8.790;2023-02-15T06:49:12;14.93;;;8.20;;
68888;SDS011;55930;47.412;8.790;2023-02-15T06:52:33;13.80;;;8.87;;
68888;SDS011;55930;47.412;8.790;2023-02-15T06:55:59;14.50;;;10.15;;
68888;SDS011;55930;47.412;8.790;2023-02-15T06:59:26;14.75;;;10.43;;
68888;SDS011;55930;47.412;8.790;2023-02-15T07:02:46;24.03;;;10.60;;
68888;SDS011;55930;47.412;8.790;2023-02-15T07:06:15;17.25;;;10.90;;
68888;SDS011;55930;47.412;8.790;2023-02-15T07:09:35;17.70;;;11.57;;
68888;SDS011;55930;47.412;8.790;2023-02-15T07:12:56;18.03;;;11.70;;
68888;SDS011;55930;47.412;8.790;2023-02-15T07:16:19;17.90;;;10.77;;
68888;SDS011;55930;47.412;8.790;2023-02-15T07:19:40;15.97;;;10.50;;
68888;SDS011;55930;47.412;8.790;2023-02-15T07:23:00;19.40;;;10.53;;
68888;SDS011;55930;47.412;8.790;2023-02-15T07:26:21;15.13;;;10.25;;
68888;SDS011;55930;47.412;8.790;2023-02-15T07:29:41;17.67;;;10.40;;
68888;SDS011;55930;47.412;8.790;2023-02-15T07:33:02;24.13;;;18.67;;
68888;SDS011;55930;47.412;8.790;2023-02-15T07:36:41;24.20;;;17.23;;
68888;SDS011;55930;47.412;8.790;2023-02-15T07:40:04;27.50;;;18.75;;
68888;SDS011;55930;47.412;8.790;2023-02-15T07:43:25;27.52;;;18.25;;
68888;SDS011;55930;47.412;8.790;2023-02-15T07:46:46;21.93;;;15.73;;
68888;SDS011;55930;47.412;8.790;2023-02-15T07:50:08;20.08;;;13.80;;
68888;SDS011;55930;47.412;8.790;2023-02-15T07:53:31;15.93;;;11.68;;
68888;SDS011;55930;47.412;8.790;2023-02-15T07:56:52;13.32;;;10.00;;
68888;SDS011;55930;47.412;8.790;2023-02-15T08:00:13;10.80;;;8.80;;
68888;SDS011;55930;47.412;8.790;2023-02-15T08:03:35;12.70;;;9.45;;
68888;SDS011;55930;47.412;8.790;2023-02-15T08:06:55;13.40;;;9.30;;
68888;SDS011;55930;47.412;8.790;2023-02-15T08:10:18;12.70;;;8.43;;
68888;SDS011;55930;47.412;8.790;2023-02-15T08:17:25;9.93;;;7.13;;
68888;SDS011;55930;47.412;8.790;2023-02-15T08:20:49;9.77;;;7.73;;
68888;SDS011;55930;47.412;8.790;2023-02-15T08:24:10;12.10;;;9.70;;
68888;SDS011;55930;47.412;8.790;2023-02-15T08:27:32;10.02;;;8.27;;
68888;SDS011;55930;47.412;8.790;2023-02-15T08:30:52;9.43;;;7.73;;
68888;SDS011;55930;47.412;8.790;2023-02-15T08:34:14;12.40;;;9.97;;
68888;SDS011;55930;47.412;8.790;2023-02-15T08:37:37;20.15;;;15.38;;
68888;SDS011;55930;47.412;8.790;2023-02-15T08:40:58;29.73;;;20.60;;
68888;SDS011;55930;47.412;8.790;2023-02-15T08:44:28;25.83;;;19.73;;
68888;SDS011;55930;47.412;8.790;2023-02-15T08:47:49;19.20;;;14.98;;
68888;SDS011;55930;47.412;8.790;2023-02-15T08:51:13;22.03;;;16.53;;
68888;SDS011;55930;47.412;8.790;2023-02-15T08:54:36;16.23;;;12.40;;
68888;SDS011;55930;47.412;8.790;2023-02-15T08:57:56;14.47;;;11.37;;
68888;SDS011;55930;47.412;8.790;2023-02-15T09:04:42;13.07;;;9.45;;
68888;SDS011;55930;47.412;8.790;2023-02-15T09:08:02;12.70;;;8.90;;
68888;SDS011;55930;47.412;8.790;2023-02-15T09:11:23;11.50;;;9.90;;
68888;SDS011;55930;47.412;8.790;2023-02-15T09:14:46;17.13;;;10.85;;
68888;SDS011;55930;47.412;8.790;2023-02-15T09:18:08;17.17;;;11.70;;
68888;SDS011;55930;47.412;8.790;2023-02-15T09:21:28;13.85;;;12.35;;
68888;SDS011;55930;47.412;8.790;2023-02-15T09:24:49;13.00;;;11.63;;
68888;SDS011;55930;47.412;8.790;2023-02-15T09:28:09;14.10;;;11.53;;
68888;SDS011;55930;47.412;8.790;2023-02-15T09:31:34;13.07;;;10.37;;
68888;SDS011;55930;47.412;8.790;2023-02-15T09:34:58;11.68;;;9.88;;
68888;SDS011;55930;47.412;8.790;2023-02-15T09:38:18;11.77;;;9.30;;
68888;SDS011;55930;47.412;8.790;2023-02-15T09:45:37;15.93;;;9.60;;
68888;SDS011;55930;47.412;8.790;2023-02-15T09:49:12;13.15;;;9.52;;
68888;SDS011;55930;47.412;8.790;2023-02-15T09:56:51;11.18;;;8.50;;
68888;SDS011;55930;47.412;8.790;2023-02-15T10:11:09;10.95;;;8.77;;
68888;SDS011;55930;47.412;8.790;2023-02-15T10:18:55;10.65;;;9.23;;
68888;SDS011;55930;47.412;8.790;2023-02-15T10:22:36;10.55;;;9.40;;
68888;SDS011;55930;47.412;8.790;2023-02-15T10:26:47;9.93;;;8.93;;
68888;SDS011;55930;47.412;8.790;2023-02-15T10:30:11;10.50;;;9.20;;
68888;SDS011;55930;47.412;8.790;2023-02-15T10:45:06;9.52;;;8.35;;
68888;SDS011;55930;47.412;8.790;2023-02-15T10:48:52;10.05;;;7.72;;
68888;SDS011;55930;47.412;8.790;2023-02-15T10:52:29;10.40;;;8.90;;
68888;SDS011;55930;47.412;8.790;2023-02-15T10:56:00;9.45;;;8.40;;
68888;SDS011;55930;47.412;8.790;2023-02-15T11:06:37;9.55;;;8.27;;
68888;SDS011;55930;47.412;8.790;2023-02-15T11:10:24;9.40;;;7.03;;
68888;SDS011;55930;47.412;8.790;2023-02-15T11:14:05;10.25;;;8.80;;
68888;SDS011;55930;47.412;8.790;2023-02-15T11:17:43;8.38;;;7.57;;
68888;SDS011;55930;47.412;8.790;2023-02-15T11:21:17;8.93;;;7.95;;
68888;SDS011;55930;47.412;8.790;2023-02-15T11:24:43;8.68;;;7.78;;
68888;SDS011;55930;47.412;8.790;2023-02-15T11:28:06;8.95;;;7.32;;
68888;SDS011;55930;47.412;8.790;2023-02-15T11:31:56;8.15;;;7.05;;
68888;SDS011;55930;47.412;8.790;2023-02-15T11:35:26;7.57;;;6.53;;
68888;SDS011;55930;47.412;8.790;2023-02-15T11:38:52;9.32;;;7.30;;
68888;SDS011;55930;47.412;8.790;2023-02-15T11:42:21;7.93;;;7.13;;
68888;SDS011;55930;47.412;8.790;2023-02-15T11:45:44;8.30;;;6.90;;
68888;SDS011;55930;47.412;8.790;2023-02-15T11:49:13;7.38;;;6.63;;
68888;SDS011;55930;47.412;8.790;2023-02-15T11:52:46;9.02;;;6.97;;
68888;SDS011;55930;47.412;8.790;2023-02-15T11:56:12;7.57;;;6.70;;
68888;SDS011;55930;47.412;8.790;2023-02-15T11:59:35;7.00;;;6.20;;
68888;SDS011;55930;47.412;8.790;2023-02-15T12:02:59;7.50;;;6.22;;
68888;SDS011;55930;47.412;8.790;2023-02-15T12:06:28;7.05;;;6.10;;
68888;SDS011;55930;47.412;8.790;2023-02-15T12:13:24;6.10;;;5.50;;
68888;SDS011;55930;47.412;8.790;2023-02-15T12:16:48;7.15;;;6.45;;
68888;SDS011;55930;47.412;8.790;2023-02-15T12:23:39;7.13;;;5.97;;
68888;SDS011;55930;47.412;8.790;2023-02-15T12:30:42;6.97;;;5.63;;
68888;SDS011;55930;47.412;8.790;2023-02-15T12:34:03;7.55;;;6.78;;
68888;SDS011;55930;47.412;8.790;2023-02-15T12:37:31;11.70;;;7.40;;
68888;SDS011;55930;47.412;8.790;2023-02-15T12:40:59;8.25;;;6.65;;
68888;SDS011;55930;47.412;8.790;2023-02-15T12:44:23;8.13;;;7.30;;
68888;SDS011;55930;47.412;8.790;2023-02-15T12:47:46;7.63;;;6.93;;
68888;SDS011;55930;47.412;8.790;2023-02-15T12:51:27;7.63;;;6.57;;
68888;SDS011;55930;47.412;8.790;2023-02-15T12:54:48;7.50;;;6.70;;
68888;SDS011;55930;47.412;8.790;2023-02-15T12:58:16;7.40;;;6.57;;
68888;SDS011;55930;47.412;8.790;2023-02-15T13:08:54;8.02;;;7.22;;
68888;SDS011;55930;47.412;8.790;2023-02-15T13:15:44;10.15;;;8.85;;
68888;SDS011;55930;47.412;8.790;2023-02-15T13:19:21;9.27;;;8.38;;
68888;SDS011;55930;47.412;8.790;2023-02-15T13:22:50;12.90;;;11.60;;
68888;SDS011;55930;47.412;8.790;2023-02-15T13:26:18;10.85;;;9.75;;
68888;SDS011;55930;47.412;8.790;2023-02-15T13:29:42;14.50;;;12.32;;
68888;SDS011;55930;47.412;8.790;2023-02-15T13:33:06;11.30;;;9.98;;
68888;SDS011;55930;47.412;8.790;2023-02-15T13:40:27;12.87;;;9.33;;
68888;SDS011;55930;47.412;8.790;2023-02-15T13:44:02;12.57;;;9.35;;
68888;SDS011;55930;47.412;8.790;2023-02-15T13:51:07;13.10;;;11.67;;
68888;SDS011;55930;47.412;8.790;2023-02-15T13:54:53;15.75;;;14.30;;
68888;SDS011;55930;47.412;8.790;2023-02-15T14:05:40;20.17;;;18.25;;
68888;SDS011;55930;47.412;8.790;2023-02-15T14:20:03;16.48;;;14.75;;
68888;SDS011;55930;47.412;8.790;2023-02-15T14:23:56;16.63;;;15.02;;
68888;SDS011;55930;47.412;8.790;2023-02-15T14:27:27;16.75;;;15.10;;
68888;SDS011;55930;47.412;8.790;2023-02-15T14:30:54;14.02;;;12.13;;
68888;SDS011;55930;47.412;8.790;2023-02-15T14:34:21;13.88;;;12.38;;
68888;SDS011;55930;47.412;8.790;2023-02-15T14:37:57;15.60;;;13.38;;
68888;SDS011;55930;47.412;8.790;2023-02-15T14:41:46;16.00;;;13.60;;
68888;SDS011;55930;47.412;8.790;2023-02-15T14:45:19;21.27;;;15.77;;
68888;SDS011;55930;47.412;8.790;2023-02-15T14:48:51;15.23;;;12.40;;
68888;SDS011;55930;47.412;8.790;2023-02-15T14:52:17;14.67;;;12.03;;
68888;SDS011;55930;47.412;8.790;2023-02-15T14:55:37;17.52;;;13.98;;
68888;SDS011;55930;47.412;8.790;2023-02-15T14:58:58;17.50;;;13.93;;
68888;SDS011;55930;47.412;8.790;2023-02-15T15:02:29;13.95;;;12.07;;
68888;SDS011;55930;47.412;8.790;2023-02-15T15:06:02;16.75;;;12.13;;
68888;SDS011;55930;47.412;8.790;2023-02-15T15:09:25;13.23;;;11.70;;
68888;SDS011;55930;47.412;8.790;2023-02-15T15:26:34;17.88;;;13.98;;
68888;SDS011;55930;47.412;8.790;2023-02-15T15:29:57;16.60;;;12.98;;
68888;SDS011;55930;47.412;8.790;2023-02-15T15:33:29;16.63;;;12.50;;
68888;SDS011;55930;47.412;8.790;2023-02-15T15:51:22;16.10;;;12.77;;
68888;SDS011;55930;47.412;8.790;2023-02-15T15:54:55;26.10;;;15.32;;
68888;SDS011;55930;47.412;8.790;2023-02-15T15:58:33;21.43;;;16.63;;
68888;SDS011;55930;47.412;8.790;2023-02-15T16:01:54;20.85;;;15.38;;
68888;SDS011;55930;47.412;8.790;2023-02-15T16:08:36;16.13;;;12.23;;
68888;SDS011;55930;47.412;8.790;2023-02-15T16:11:59;19.70;;;14.07;;
68888;SDS011;55930;47.412;8.790;2023-02-15T16:15:22;17.48;;;13.20;;
68888;SDS011;55930;47.412;8.790;2023-02-15T16:18:45;20.73;;;13.65;;
68888;SDS011;55930;47.412;8.790;2023-02-15T16:22:18;14.52;;;11.68;;
68888;SDS011;55930;47.412;8.790;2023-02-15T16:29:28;19.60;;;14.35;;
68888;SDS011;55930;47.412;8.790;2023-02-15T16:33:13;21.77;;;13.80;;
68888;SDS011;55930;47.412;8.790;2023-02-15T16:36:35;18.38;;;14.77;;
68888;SDS011;55930;47.412;8.790;2023-02-15T16:39:55;20.93;;;13.70;;
68888;SDS011;55930;47.412;8.790;2023-02-15T16:43:17;21.77;;;13.65;;
68888;SDS011;55930;47.412;8.790;2023-02-15T16:46:48;17.70;;;14.55;;
68888;SDS011;55930;47.412;8.790;2023-02-15T16:50:29;22.30;;;14.73;;
68888;SDS011;55930;47.412;8.790;2023-02-15T16:53:52;17.95;;;13.77;;
68888;SDS011;55930;47.412;8.790;2023-02-15T16:57:21;21.20;;;13.45;;
68888;SDS011;55930;47.412;8.790;2023-02-15T17:00:44;18.77;;;13.98;;
68888;SDS011;55930;47.412;8.790;2023-02-15T17:07:34;23.33;;;14.35;;
68888;SDS011;55930;47.412;8.790;2023-02-15T17:14:41;16.85;;;13.38;;
68888;SDS011;55930;47.412;8.790;2023-02-15T17:18:10;17.05;;;13.10;;
68888;SDS011;55930;47.412;8.790;2023-02-15T17:21:46;17.35;;;13.75;;
68888;SDS011;55930;47.412;8.790;2023-02-15T17:25:18;17.27;;;13.10;;
68888;SDS011;55930;47.412;8.790;2023-02-15T17:28:50;18.05;;;12.57;;
68888;SDS011;55930;47.412;8.790;2023-02-15T17:32:23;17.77;;;12.88;;
68888;SDS011;55930;47.412;8.790;2023-02-15T17:35:49;17.33;;;13.50;;
68888;SDS011;55930;47.412;8.790;2023-02-15T17:39:23;20.80;;;14.48;;
68888;SDS011;55930;47.412;8.790;2023-02-15T17:42:46;21.73;;;13.47;;
68888;SDS011;55930;47.412;8.790;2023-02-15T17:46:07;18.38;;;12.30;;
68888;SDS011;55930;47.412;8.790;2023-02-15T17:49:29;19.60;;;13.90;;
68888;SDS011;55930;47.412;8.790;2023-02-15T17:52:57;21.98;;;14.30;;
68888;SDS011;55930;47.412;8.790;2023-02-15T17:59:38;17.33;;;12.10;;
68888;SDS011;55930;47.412;8.790;2023-02-15T18:03:17;17.25;;;12.50;;
68888;SDS011;55930;47.412;8.790;2023-02-15T18:06:56;16.02;;;12.00;;
68888;SDS011;55930;47.412;8.790;2023-02-15T18:10:36;19.50;;;12.57;;
68888;SDS011;55930;47.412;8.790;2023-02-15T18:14:17;21.27;;;13.10;;
68888;SDS011;55930;47.412;8.790;2023-02-15T18:17:41;22.98;;;14.35;;
68888;SDS011;55930;47.412;8.790;2023-02-15T18:21:04;24.23;;;14.52;;
68888;SDS011;55930;47.412;8.790;2023-02-15T18:24:30;19.23;;;14.48;;
68888;SDS011;55930;47.412;8.790;2023-02-15T18:27:50;22.87;;;11.90;;
68888;SDS011;55930;47.412;8.790;2023-02-15T18:31:11;18.40;;;12.10;;
68888;SDS011;55930;47.412;8.790;2023-02-15T18:34:34;16.15;;;12.50;;
68888;SDS011;55930;47.412;8.790;2023-02-15T18:37:58;18.95;;;13.70;;
68888;SDS011;55930;47.412;8.790;2023-02-15T18:41:22;19.17;;;13.50;;
68888;SDS011;55930;47.412;8.790;2023-02-15T18:44:46;20.27;;;13.35;;
68888;SDS011;55930;47.412;8.790;2023-02-15T18:48:07;22.17;;;13.35;;
68888;SDS011;55930;47.412;8.790;2023-02-15T18:54:50;19.83;;;13.60;;
68888;SDS011;55930;47.412;8.790;2023-02-15T18:58:16;20.92;;;13.88;;
68888;SDS011;55930;47.412;8.790;2023-02-15T19:01:38;19.98;;;13.85;;
68888;SDS011;55930;47.412;8.790;2023-02-15T19:04:58;23.03;;;14.10;;
68888;SDS011;55930;47.412;8.790;2023-02-15T19:08:19;18.57;;;13.07;;
68888;SDS011;55930;47.412;8.790;2023-02-15T19:11:46;20.00;;;14.10;;
68888;SDS011;55930;47.412;8.790;2023-02-15T19:15:14;21.20;;;14.07;;
68888;SDS011;55930;47.412;8.790;2023-02-15T19:18:36;20.10;;;13.63;;
68888;SDS011;55930;47.412;8.790;2023-02-15T19:21:56;18.80;;;13.40;;
68888;SDS011;55930;47.412;8.790;2023-02-15T19:25:18;20.43;;;14.27;;
68888;SDS011;55930;47.412;8.790;2023-02-15T19:28:41;19.45;;;13.80;;
68888;SDS011;55930;47.412;8.790;2023-02-15T19:32:01;20.00;;;14.00;;
68888;SDS011;55930;47.412;8.790;2023-02-15T19:35:22;18.60;;;12.83;;
68888;SDS011;55930;47.412;8.790;2023-02-15T19:38:45;21.10;;;14.85;;
68888;SDS011;55930;47.412;8.790;2023-02-15T19:42:12;20.80;;;14.10;;
68888;SDS011;55930;47.412;8.790;2023-02-15T19:45:34;20.17;;;13.88;;
68888;SDS011;55930;47.412;8.790;2023-02-15T19:48:54;22.43;;;16.00;;
68888;SDS011;55930;47.412;8.790;2023-02-15T19:52:16;23.47;;;15.60;;
68888;SDS011;55930;47.412;8.790;2023-02-15T19:55:39;22.83;;;14.85;;
68888;SDS011;55930;47.412;8.790;2023-02-15T19:59:02;21.45;;;14.73;;
68888;SDS011;55930;47.412;8.790;2023-02-15T20:02:22;21.17;;;15.13;;
68888;SDS011;55930;47.412;8.790;2023-02-15T20:05:43;22.77;;;15.60;;
68888;SDS011;55930;47.412;8.790;2023-02-15T20:09:04;21.92;;;14.65;;
68888;SDS011;55930;47.412;8.790;2023-02-15T20:12:24;22.70;;;16.47;;
68888;SDS011;55930;47.412;8.790;2023-02-15T20:15:45;20.98;;;15.23;;
68888;SDS011;55930;47.412;8.790;2023-02-15T20:19:06;22.10;;;15.00;;
68888;SDS011;55930;47.412;8.790;2023-02-15T20:22:29;24.88;;;15.75;;
68888;SDS011;55930;47.412;8.790;2023-02-15T20:25:50;21.87;;;15.10;;
68888;SDS011;55930;47.412;8.790;2023-02-15T20:29:14;22.15;;;15.15;;
68888;SDS011;55930;47.412;8.790;2023-02-15T20:32:37;22.35;;;15.98;;
68888;SDS011;55930;47.412;8.790;2023-02-15T20:35:57;22.20;;;15.70;;
68888;SDS011;55930;47.412;8.790;2023-02-15T20:39:18;23.13;;;14.30;;
68888;SDS011;55930;47.412;8.790;2023-02-15T20:42:39;22.38;;;14.45;;
68888;SDS011;55930;47.412;8.790;2023-02-15T20:46:00;22.27;;;15.47;;
68888;SDS011;55930;47.412;8.790;2023-02-15T20:49:23;22.23;;;14.27;;
68888;SDS011;55930;47.412;8.790;2023-02-15T20:52:45;24.23;;;14.80;;
68888;SDS011;55930;47.412;8.790;2023-02-15T20:56:12;21.55;;;14.90;;
68888;SDS011;55930;47.412;8.790;2023-02-15T20:59:41;22.70;;;16.05;;
68888;SDS011;55930;47.412;8.790;2023-02-15T21:03:06;24.73;;;16.55;;
68888;SDS011;55930;47.412;8.790;2023-02-15T21:06:31;20.73;;;14.60;;
68888;SDS011;55930;47.412;8.790;2023-02-15T21:09:51;19.03;;;13.83;;
68888;SDS011;55930;47.412;8.790;2023-02-15T21:13:26;22.13;;;12.98;;
68888;SDS011;55930;47.412;8.790;2023-02-15T21:16:49;20.83;;;13.45;;
68888;SDS011;55930;47.412;8.790;2023-02-15T21:23:34;19.63;;;11.57;;
68888;SDS011;55930;47.412;8.790;2023-02-15T21:26:59;17.67;;;11.90;;
68888;SDS011;55930;47.412;8.790;2023-02-15T21:30:22;17.90;;;11.50;;
68888;SDS011;55930;47.412;8.790;2023-02-15T21:33:43;19.23;;;12.27;;
68888;SDS011;55930;47.412;8.790;2023-02-15T21:37:26;16.50;;;10.60;;
68888;SDS011;55930;47.412;8.790;2023-02-15T21:40:52;18.65;;;11.05;;
68888;SDS011;55930;47.412;8.790;2023-02-15T21:44:32;19.63;;;10.98;;
68888;SDS011;55930;47.412;8.790;2023-02-15T21:48:22;17.58;;;9.35;;
68888;SDS011;55930;47.412;8.790;2023-02-15T21:51:42;15.00;;;9.67;;
68888;SDS011;55930;47.412;8.790;2023-02-15T21:55:21;15.75;;;10.40;;
68888;SDS011;55930;47.412;8.790;2023-02-15T21:58:44;14.93;;;9.85;;
68888;SDS011;55930;47.412;8.790;2023-02-15T22:02:07;15.63;;;9.80;;
68888;SDS011;55930;47.412;8.790;2023-02-15T22:05:44;14.98;;;9.23;;
68888;SDS011;55930;47.412;8.790;2023-02-15T22:09:23;14.87;;;9.37;;
68888;SDS011;55930;47.412;8.790;2023-02-15T22:12:48;13.57;;;8.70;;
68888;SDS011;55930;47.412;8.790;2023-02-15T22:16:18;14.48;;;9.27;;
68888;SDS011;55930;47.412;8.790;2023-02-15T22:19:39;14.77;;;9.90;;
68888;SDS011;55930;47.412;8.790;2023-02-15T22:23:00;14.17;;;9.43;;
68888;SDS011;55930;47.412;8.790;2023-02-15T22:26:22;15.87;;;10.03;;
68888;SDS011;55930;47.412;8.790;2023-02-15T22:29:44;17.30;;;11.05;;
68888;SDS011;55930;47.412;8.790;2023-02-15T22:33:05;13.87;;;9.87;;
68888;SDS011;55930;47.412;8.790;2023-02-15T22:36:27;15.30;;;10.17;;
68888;SDS011;55930;47.412;8.790;2023-02-15T22:39:49;14.18;;;9.77;;
68888;SDS011;55930;47.412;8.790;2023-02-15T22:43:14;13.50;;;9.67;;
68888;SDS011;55930;47.412;8.790;2023-02-15T22:46:41;15.07;;;9.45;;
68888;SDS011;55930;47.412;8.790;2023-02-15T22:50:02;16.17;;;9.77;;
68888;SDS011;55930;47.412;8.790;2023-02-15T22:53:22;13.43;;;8.30;;
68888;SDS011;55930;47.412;8.790;2023-02-15T22:56:45;14.20;;;8.20;;
68888;SDS011;55930;47.412;8.790;2023-02-15T23:00:14;13.32;;;7.97;;
68888;SDS011;55930;47.412;8.790;2023-02-15T23:03:45;15.48;;;7.82;;
68888;SDS011;55930;47.412;8.790;2023-02-15T23:07:16;11.73;;;7.95;;